Time;durP1;ratioP1;P1;durP2;ratioP2;P2;SDS_P1;SDS_P2;PMS_P1;PMS_P2;Temp;Humidity;BMP_temperature;BMP_pressure;BME280_temperature;BME280_humidity;BME280_pressure;Samples;Min_cycle;Max_cycle;Signal;HPM_P1;HPM_P2
2022/05/18 00:02:11;;;;;;;5.00;1.30;;;13.90;99.10;;;;;;5061385;28;20824;-79
2022/05/18 00:04:38;;;;;;;2.07;0.97;;;13.90;98.90;;;;;;5063772;28;20251;-79
2022/05/18 00:07:05;;;;;;;1.50;0.77;;;13.80;98.70;;;;;;5063931;28;20252;-80
2022/05/18 00:09:32;;;;;;;5.30;1.47;;;13.80;98.70;;;;;;5063342;28;20233;-79
2022/05/18 00:12:00;;;;;;;2.70;1.07;;;13.80;98.50;;;;;;5060536;28;20316;-80
2022/05/18 00:14:27;;;;;;;3.90;1.10;;;13.80;98.30;;;;;;5059091;28;20225;-80
2022/05/18 00:16:54;;;;;;;1.90;0.97;;;13.70;98.20;;;;;;5057630;28;20224;-80
2022/05/18 00:19:21;;;;;;;3.30;0.93;;;13.70;98.00;;;;;;5064788;28;20237;-79
2022/05/18 00:21:48;;;;;;;2.77;0.77;;;13.70;98.00;;;;;;5060957;28;20238;-79
2022/05/18 00:24:15;;;;;;;2.57;0.90;;;13.60;97.90;;;;;;5062670;28;20287;-79
2022/05/18 00:26:42;;;;;;;2.57;0.93;;;13.60;97.60;;;;;;5060821;28;20231;-79
2022/05/18 00:29:10;;;;;;;3.27;0.87;;;13.60;97.60;;;;;;5064983;28;20303;-79
2022/05/18 00:31:37;;;;;;;2.17;0.80;;;13.60;97.40;;;;;;5057616;28;20562;-79
2022/05/18 00:34:05;;;;;;;1.93;1.03;;;13.50;97.40;;;;;;5059310;28;20217;-79
2022/05/18 00:36:32;;;;;;;3.70;0.97;;;13.50;97.30;;;;;;5056876;28;20230;-80
2022/05/18 00:38:59;;;;;;;2.03;1.03;;;13.50;97.20;;;;;;5064271;28;20758;-80
2022/05/18 00:41:27;;;;;;;2.20;0.90;;;13.50;97.00;;;;;;5057549;28;20232;-80
2022/05/18 00:43:55;;;;;;;3.90;0.80;;;13.40;96.90;;;;;;5079752;28;20985;-81
2022/05/18 00:46:23;;;;;;;3.63;1.00;;;13.40;96.70;;;;;;5056408;28;20215;-80
2022/05/18 00:48:51;;;;;;;3.07;0.90;;;13.40;96.70;;;;;;5062006;28;20247;-77
2022/05/18 00:51:23;;;;;;;2.47;1.00;;;13.30;96.70;;;;;;5052231;28;20302;-78
2022/05/18 00:53:54;;;;;;;2.90;0.83;;;13.30;96.60;;;;;;5060017;28;20730;-78
2022/05/18 00:56:27;;;;;;;3.97;1.30;;;13.20;96.50;;;;;;5060043;28;20672;-78
2022/05/18 00:58:58;;;;;;;1.87;0.90;;;13.20;96.40;;;;;;5060956;28;20283;-78
2022/05/18 01:01:27;;;;;;;3.53;1.00;;;13.10;96.30;;;;;;5059144;28;20598;-78
2022/05/18 01:03:55;;;;;;;2.17;1.00;;;13.10;96.30;;;;;;5057510;28;20231;-78
2022/05/18 01:06:28;;;;;;;3.33;0.90;;;13.10;96.40;;;;;;5060152;28;20309;-78
2022/05/18 01:09:02;;;;;;;3.33;1.30;;;13.00;96.40;;;;;;5053166;28;20232;-78
2022/05/18 01:11:29;;;;;;;3.03;1.00;;;13.00;96.70;;;;;;5053346;28;20251;-77
2022/05/18 01:13:56;;;;;;;2.23;0.80;;;12.90;96.40;;;;;;5055916;28;20230;-77
2022/05/18 01:16:25;;;;;;;3.27;1.10;;;12.90;96.40;;;;;;5055151;28;20224;-78
2022/05/18 01:18:54;;;;;;;1.70;0.80;;;12.80;96.50;;;;;;5062224;28;20228;-78
2022/05/18 01:21:21;;;;;;;4.53;1.00;;;12.80;96.40;;;;;;5067901;28;20237;-78
2022/05/18 01:23:55;;;;;;;1.63;0.80;;;12.80;96.50;;;;;;5056314;28;20304;-78
2022/05/18 01:26:42;;;;;;;1.90;0.90;;;12.70;96.30;;;;;;5061796;28;20219;-77
2022/05/18 01:29:09;;;;;;;3.47;0.90;;;12.70;96.20;;;;;;5067948;28;20221;-77
2022/05/18 01:31:45;;;;;;;1.63;1.07;;;12.70;96.30;;;;;;5070921;28;20283;-77
2022/05/18 01:34:13;;;;;;;2.73;0.80;;;12.60;96.10;;;;;;5080556;28;20233;-77
2022/05/18 01:36:40;;;;;;;1.80;0.90;;;12.60;96.20;;;;;;5077258;28;20305;-78
2022/05/18 01:39:12;;;;;;;2.17;0.70;;;12.60;96.20;;;;;;5086719;28;20222;-78
2022/05/18 01:41:47;;;;;;;3.33;0.80;;;12.50;96.10;;;;;;5080913;28;20310;-77
2022/05/18 01:44:14;;;;;;;4.03;1.00;;;12.50;96.10;;;;;;5083450;28;20283;-78
2022/05/18 01:46:42;;;;;;;1.50;0.97;;;12.50;96.20;;;;;;5068834;28;20295;-79
2022/05/18 01:49:08;;;;;;;1.77;0.70;;;12.50;96.10;;;;;;5085932;28;20640;-79
2022/05/18 01:51:43;;;;;;;2.07;1.07;;;12.50;96.20;;;;;;5086822;28;20740;-77
2022/05/18 01:54:09;;;;;;;2.77;1.10;;;12.40;96.10;;;;;;5065523;28;20553;-78
2022/05/18 01:56:37;;;;;;;3.37;0.80;;;12.40;96.20;;;;;;5063330;28;20224;-79
2022/05/18 01:59:06;;;;;;;3.13;1.00;;;12.40;96.20;;;;;;5068885;28;20230;-78
2022/05/18 02:01:33;;;;;;;3.23;0.90;;;12.40;96.20;;;;;;5084189;28;20225;-79
2022/05/18 02:04:00;;;;;;;1.40;0.93;;;12.40;96.20;;;;;;5082489;28;20217;-78
2022/05/18 02:06:29;;;;;;;1.90;1.10;;;12.40;96.20;;;;;;5085291;28;20230;-77
2022/05/18 02:08:58;;;;;;;4.20;1.37;;;12.40;96.10;;;;;;5078004;28;20313;-77
2022/05/18 02:11:25;;;;;;;2.97;0.77;;;12.30;96.10;;;;;;5076954;28;20222;-76
2022/05/18 02:13:52;;;;;;;2.63;0.80;;;12.30;96.00;;;;;;5077911;28;20259;-77
2022/05/18 02:16:21;;;;;;;3.57;1.10;;;12.30;95.90;;;;;;5083819;28;20233;-77
2022/05/18 02:18:47;;;;;;;1.47;0.90;;;12.30;95.90;;;;;;5080439;28;20267;-77
2022/05/18 02:21:14;;;;;;;2.47;1.00;;;12.30;95.90;;;;;;5081689;28;21902;-77
2022/05/18 02:23:42;;;;;;;1.30;0.80;;;12.20;95.90;;;;;;5085838;28;20761;-77
2022/05/18 02:26:10;;;;;;;2.60;0.90;;;12.20;95.90;;;;;;5087836;28;20230;-77
2022/05/18 02:28:37;;;;;;;3.83;0.80;;;12.20;96.00;;;;;;5066905;28;20220;-77
2022/05/18 02:31:04;;;;;;;2.20;0.93;;;12.20;95.90;;;;;;5063289;28;20227;-77
2022/05/18 02:33:33;;;;;;;3.17;0.87;;;12.10;95.80;;;;;;5065181;28;20231;-77
2022/05/18 02:36:00;;;;;;;3.50;1.10;;;12.10;95.80;;;;;;5073843;28;20310;-77
2022/05/18 02:38:27;;;;;;;2.13;0.90;;;12.10;95.80;;;;;;5084413;28;20234;-77
2022/05/18 02:40:57;;;;;;;2.80;1.10;;;12.10;95.60;;;;;;5082833;28;20256;-77
2022/05/18 02:43:24;;;;;;;3.00;1.13;;;12.10;95.70;;;;;;5076969;28;20215;-78
2022/05/18 02:45:50;;;;;;;3.67;0.93;;;12.10;95.70;;;;;;5085081;28;20285;-77
2022/05/18 02:48:17;;;;;;;2.97;0.90;;;12.10;95.60;;;;;;5064590;28;20233;-77
2022/05/18 02:50:47;;;;;;;2.40;1.10;;;12.00;95.60;;;;;;5059918;28;20245;-77
2022/05/18 02:53:14;;;;;;;2.17;0.90;;;12.00;95.60;;;;;;5061239;28;20317;-78
2022/05/18 02:58:25;;;;;;;4.00;0.93;;;12.00;95.60;;;;;;5056176;28;20589;-78
2022/05/18 03:00:52;;;;;;;2.13;1.00;;;12.00;95.50;;;;;;5053172;28;20238;-78
2022/05/18 03:03:18;;;;;;;3.00;0.90;;;12.00;95.50;;;;;;5054829;28;20742;-78
2022/05/18 03:05:47;;;;;;;2.73;0.93;;;12.00;95.40;;;;;;5062473;28;20232;-78
2022/05/18 03:08:14;;;;;;;1.00;0.87;;;12.00;95.10;;;;;;5060189;28;20243;-77
2022/05/18 03:10:41;;;;;;;2.53;1.20;;;12.00;95.20;;;;;;5053520;28;20591;-77
2022/05/18 03:13:08;;;;;;;4.67;1.27;;;12.00;95.40;;;;;;5056758;28;20309;-77
2022/05/18 03:15:35;;;;;;;2.40;1.13;;;12.00;95.40;;;;;;5054787;28;20298;-77
2022/05/18 03:18:01;;;;;;;2.50;0.97;;;11.90;95.30;;;;;;5053836;28;20247;-77
2022/05/18 03:25:58;;;;;;;3.70;1.00;;;12.00;95.30;;;;;;5059434;28;20755;-77
2022/05/18 03:28:25;;;;;;;1.27;1.00;;;12.00;95.30;;;;;;5052273;28;20230;-76
2022/05/18 03:30:51;;;;;;;1.37;0.90;;;12.00;95.30;;;;;;5060694;28;20229;-77
2022/05/18 03:33:22;;;;;;;2.87;1.20;;;11.90;95.30;;;;;;5060309;28;20223;-77
2022/05/18 03:35:49;;;;;;;2.30;1.03;;;11.90;95.30;;;;;;5061254;28;20219;-78
2022/05/18 03:38:17;;;;;;;1.87;1.00;;;11.90;95.30;;;;;;5060628;28;20837;-77
2022/05/18 03:40:44;;;;;;;2.03;0.97;;;11.90;95.10;;;;;;5079240;28;20229;-76
2022/05/18 03:43:11;;;;;;;1.40;0.90;;;11.90;95.10;;;;;;5075515;28;20222;-77
2022/05/18 03:45:38;;;;;;;2.30;1.07;;;11.90;95.50;;;;;;5083116;28;20225;-77
2022/05/18 03:48:07;;;;;;;1.37;1.00;;;11.90;95.30;;;;;;5077089;28;20293;-77
2022/05/18 03:50:36;;;;;;;1.97;1.10;;;11.90;95.30;;;;;;5078208;28;20227;-77
2022/05/18 03:53:04;;;;;;;3.83;1.30;;;11.90;95.40;;;;;;5078747;28;20222;-77
2022/05/18 03:55:36;;;;;;;2.23;1.20;;;11.90;95.50;;;;;;5057644;28;20232;-77
2022/05/18 03:58:04;;;;;;;2.97;1.40;;;11.90;95.50;;;;;;5059078;28;20223;-78
2022/05/18 04:00:32;;;;;;;2.37;1.07;;;11.90;95.60;;;;;;5052463;28;20593;-78
2022/05/18 04:02:59;;;;;;;3.90;1.00;;;11.90;95.50;;;;;;5066435;28;20232;-78
2022/05/18 04:05:26;;;;;;;4.13;1.10;;;11.90;95.60;;;;;;5080241;28;20218;-77
2022/05/18 04:07:53;;;;;;;3.37;1.10;;;11.90;95.50;;;;;;5082482;28;21020;-78
2022/05/18 04:10:20;;;;;;;4.23;1.47;;;11.90;95.50;;;;;;5077406;28;20235;-79
2022/05/18 04:12:49;;;;;;;3.13;1.10;;;11.90;95.40;;;;;;5081939;28;20248;-78
2022/05/18 04:15:17;;;;;;;3.87;1.07;;;11.90;95.40;;;;;;5079342;28;20304;-77
2022/05/18 04:17:45;;;;;;;4.43;1.40;;;12.00;95.50;;;;;;5081996;28;20233;-77
2022/05/18 04:20:13;;;;;;;2.57;1.00;;;12.00;95.60;;;;;;5076242;28;20684;-77
2022/05/18 04:22:40;;;;;;;3.13;0.97;;;12.00;95.50;;;;;;5082805;28;20992;-77
2022/05/18 04:25:09;;;;;;;1.50;1.03;;;12.00;95.50;;;;;;5081142;28;20226;-78
2022/05/18 04:27:35;;;;;;;4.47;1.00;;;12.10;95.60;;;;;;5079974;28;20222;-79
2022/05/18 04:30:06;;;;;;;2.93;1.30;;;12.10;95.50;;;;;;5072433;28;20216;-79
2022/05/18 04:32:33;;;;;;;1.73;1.10;;;12.10;95.50;;;;;;5072069;28;20231;-78
2022/05/18 04:34:59;;;;;;;2.40;1.30;;;12.10;95.60;;;;;;5074134;28;20317;-76
2022/05/18 04:37:26;;;;;;;1.47;1.10;;;12.20;95.60;;;;;;5072905;28;20805;-76
2022/05/18 04:39:53;;;;;;;2.33;1.13;;;12.20;95.70;;;;;;5082708;28;20216;-80
2022/05/18 04:42:22;;;;;;;3.27;1.23;;;12.20;95.50;;;;;;5085105;28;20228;-80
2022/05/18 04:44:50;;;;;;;2.43;1.13;;;12.20;95.80;;;;;;5082516;28;20249;-80
2022/05/18 04:47:21;;;;;;;3.67;1.40;;;12.20;95.50;;;;;;5084391;28;20224;-79
2022/05/18 04:49:49;;;;;;;4.03;1.43;;;12.30;95.40;;;;;;5088546;28;20221;-83
2022/05/18 04:52:16;;;;;;;2.20;1.10;;;12.30;95.50;;;;;;5089920;28;20223;-83
2022/05/18 04:54:43;;;;;;;3.93;1.30;;;12.30;95.40;;;;;;5080519;28;20240;-81
2022/05/18 04:57:10;;;;;;;3.93;1.20;;;12.30;95.30;;;;;;5086182;28;20217;-81
2022/05/18 04:59:37;;;;;;;1.77;1.17;;;12.40;95.60;;;;;;5090541;28;20232;-81
2022/05/18 05:02:05;;;;;;;3.63;1.30;;;12.40;95.50;;;;;;5085861;28;20334;-81
2022/05/18 05:04:33;;;;;;;2.43;1.00;;;12.50;95.70;;;;;;5089033;28;20303;-83
2022/05/18 05:07:01;;;;;;;2.67;1.20;;;12.60;95.70;;;;;;5084542;28;20229;-80
2022/05/18 05:09:28;;;;;;;3.77;1.37;;;12.60;95.60;;;;;;5069230;27;20274;-82
2022/05/18 05:11:55;;;;;;;3.00;1.50;;;12.70;95.60;;;;;;5072333;28;20277;-81
2022/05/18 05:14:23;;;;;;;2.77;1.53;;;12.80;95.80;;;;;;5079045;28;20252;-80
2022/05/18 05:16:50;;;;;;;2.53;1.30;;;12.80;95.70;;;;;;5079620;28;20271;-81
2022/05/18 05:19:17;;;;;;;1.83;1.30;;;12.90;95.90;;;;;;5064187;28;21192;-80
2022/05/18 05:21:45;;;;;;;4.47;1.60;;;13.00;95.80;;;;;;5068525;28;20860;-81
2022/05/18 05:24:14;;;;;;;4.60;1.47;;;13.00;95.60;;;;;;5063764;28;20218;-79
2022/05/18 05:26:42;;;;;;;3.87;1.90;;;13.10;95.60;;;;;;5064117;28;20220;-82
2022/05/18 05:29:10;;;;;;;4.63;1.70;;;13.20;95.60;;;;;;5067023;28;20244;-80
2022/05/18 05:31:37;;;;;;;3.40;1.43;;;13.20;95.30;;;;;;5061199;28;20243;-80
2022/05/18 05:34:04;;;;;;;4.97;1.70;;;13.30;95.70;;;;;;5060413;28;20239;-81
2022/05/18 05:36:31;;;;;;;2.73;1.47;;;13.30;95.70;;;;;;5085851;28;20688;-80
2022/05/18 05:39:00;;;;;;;4.00;1.47;;;13.40;95.60;;;;;;5095063;27;20832;-80
2022/05/18 05:41:27;;;;;;;4.00;1.50;;;13.40;95.50;;;;;;5092807;27;20238;-81
2022/05/18 05:43:54;;;;;;;2.63;1.40;;;13.40;95.30;;;;;;5089434;27;20225;-81
2022/05/18 05:46:21;;;;;;;2.40;1.50;;;13.50;95.30;;;;;;5091456;28;20221;-81
2022/05/18 05:48:48;;;;;;;3.80;1.43;;;13.50;95.40;;;;;;5093587;28;20324;-80
2022/05/18 05:51:16;;;;;;;3.20;1.50;;;13.60;95.50;;;;;;5090340;28;20520;-83
2022/05/18 05:53:44;;;;;;;5.03;1.70;;;13.60;95.30;;;;;;5095707;27;20227;-81
2022/05/18 05:56:15;;;;;;;3.33;1.50;;;13.70;95.30;;;;;;5095197;28;20293;-82
2022/05/18 05:58:43;;;;;;;1.73;1.40;;;13.70;95.40;;;;;;5096100;28;20261;-82
2022/05/18 06:01:12;;;;;;;3.07;1.30;;;13.70;95.60;;;;;;5086851;27;20227;-82
2022/05/18 06:03:40;;;;;;;2.63;1.53;;;13.80;95.70;;;;;;5094832;27;20245;-81
2022/05/18 06:06:08;;;;;;;4.40;1.67;;;13.90;95.50;;;;;;5090957;28;20788;-81
2022/05/18 06:08:35;;;;;;;2.83;1.60;;;14.00;95.90;;;;;;5095660;28;20630;-81
2022/05/18 06:11:03;;;;;;;4.07;2.03;;;14.10;95.80;;;;;;5096568;27;20809;-80
2022/05/18 06:13:32;;;;;;;5.37;2.07;;;14.20;95.60;;;;;;5075546;28;20647;-80
2022/05/18 06:15:59;;;;;;;3.47;1.70;;;14.30;95.50;;;;;;5065590;28;20893;-80
2022/05/18 06:18:26;;;;;;;2.97;1.70;;;14.50;95.50;;;;;;5071645;28;20225;-80
2022/05/18 06:20:53;;;;;;;4.10;2.07;;;14.60;95.50;;;;;;5067048;28;20281;-80
2022/05/18 06:23:20;;;;;;;2.87;2.07;;;14.70;95.30;;;;;;5073557;28;20569;-81
2022/05/18 06:25:47;;;;;;;2.53;1.70;;;14.80;95.20;;;;;;5069271;28;20228;-82
2022/05/18 06:28:15;;;;;;;4.63;2.10;;;14.80;95.10;;;;;;5073939;28;20239;-80
2022/05/18 06:30:43;;;;;;;2.73;2.00;;;14.90;95.30;;;;;;5075107;28;20761;-82
2022/05/18 06:33:10;;;;;;;3.90;1.83;;;15.00;95.00;;;;;;5073562;28;20228;-81
2022/05/18 06:35:37;;;;;;;3.17;2.13;;;15.10;95.20;;;;;;5066102;28;20809;-84
2022/05/18 06:38:12;;;;;;;4.10;2.20;;;15.20;95.40;;;;;;5070410;28;20786;-79
2022/05/18 06:43:26;;;;;;;4.23;2.03;;;15.50;95.40;;;;;;5061926;28;20514;-79
2022/05/18 06:45:55;;;;;;;5.23;2.20;;;15.60;95.10;;;;;;5064976;28;20229;-79
2022/05/18 06:48:21;;;;;;;5.03;2.17;;;15.70;95.10;;;;;;5065001;28;20723;-79
2022/05/18 06:50:48;;;;;;;2.53;2.00;;;15.80;95.20;;;;;;5054468;28;20229;-79
2022/05/18 06:53:15;;;;;;;2.90;2.10;;;15.80;95.40;;;;;;5064008;28;20221;-78
2022/05/18 06:55:42;;;;;;;4.50;1.90;;;16.00;95.40;;;;;;5062391;28;20242;-78
2022/05/18 06:58:09;;;;;;;5.40;2.20;;;16.10;95.60;;;;;;5059459;28;20245;-79
2022/05/18 07:00:36;;;;;;;3.00;2.10;;;16.40;95.70;;;;;;5066770;28;20257;-79
2022/05/18 07:03:04;;;;;;;3.23;2.10;;;16.80;95.60;;;;;;5067292;28;20241;-80
2022/05/18 07:05:31;;;;;;;2.80;2.00;;;17.10;95.40;;;;;;5076952;27;20260;-79
2022/05/18 07:07:58;;;;;;;4.17;2.20;;;17.50;95.40;;;;;;5091515;27;20223;-79
2022/05/18 07:10:26;;;;;;;4.40;2.50;;;17.90;94.50;;;;;;5083577;28;20280;-79
2022/05/18 07:12:53;;;;;;;6.77;2.73;;;18.20;94.10;;;;;;5082292;28;20868;-80
2022/05/18 07:15:20;;;;;;;5.37;2.73;;;18.50;93.90;;;;;;5082133;27;20310;-80
2022/05/18 07:17:47;;;;;;;3.80;2.17;;;18.70;93.50;;;;;;5082398;28;20227;-81
2022/05/18 07:20:16;;;;;;;3.30;2.20;;;18.90;93.80;;;;;;5066015;28;20223;-81
2022/05/18 07:22:43;;;;;;;6.63;2.88;;;19.10;93.40;;;;;;5076378;28;20225;-82
2022/05/18 07:25:10;;;;;;;7.80;2.80;;;19.40;93.30;;;;;;5075244;28;20234;-81
2022/05/18 07:27:37;;;;;;;4.05;2.47;;;19.60;92.70;;;;;;5071874;28;20306;-84
2022/05/18 07:30:05;;;;;;;5.47;2.90;;;19.70;92.20;;;;;;5069200;28;20229;-83
2022/05/18 07:32:32;;;;;;;3.88;2.85;;;19.70;91.90;;;;;;5085618;28;20250;-83
2022/05/18 07:34:58;;;;;;;5.03;2.85;;;19.70;91.90;;;;;;5086415;28;20311;-84
2022/05/18 07:37:27;;;;;;;5.22;2.67;;;19.60;91.90;;;;;;5086554;28;20567;-83
2022/05/18 07:39:53;;;;;;;5.40;2.97;;;19.70;92.00;;;;;;5086883;28;20223;-83
2022/05/18 07:42:20;;;;;;;4.13;2.95;;;19.50;92.00;;;;;;5086017;28;20249;-83
2022/05/18 07:44:48;;;;;;;4.23;2.93;;;19.40;91.90;;;;;;5085486;28;20230;-83
2022/05/18 07:47:15;;;;;;;5.03;2.60;;;19.40;92.30;;;;;;5086703;28;20755;-83
2022/05/18 07:49:43;;;;;;;4.72;2.55;;;19.30;92.50;;;;;;5087206;28;20301;-83
2022/05/18 07:52:10;;;;;;;5.53;3.08;;;19.30;92.40;;;;;;5086148;28;20245;-83
2022/05/18 07:54:38;;;;;;;6.18;3.10;;;19.30;92.50;;;;;;5087383;28;20219;-84
2022/05/18 07:57:08;;;;;;;4.20;2.97;;;19.20;92.40;;;;;;5087203;28;20284;-80
2022/05/18 07:59:35;;;;;;;4.70;2.60;;;19.20;92.60;;;;;;5091207;28;20226;-83
2022/05/18 08:02:02;;;;;;;6.10;3.03;;;19.20;92.70;;;;;;5087945;28;20796;-81
2022/05/18 08:04:29;;;;;;;5.40;2.70;;;19.10;92.60;;;;;;5084222;28;20222;-85
2022/05/18 08:06:55;;;;;;;4.80;3.13;;;19.10;92.80;;;;;;5085737;28;20243;-82
2022/05/18 08:09:23;;;;;;;5.22;3.28;;;19.00;93.00;;;;;;5085294;27;20795;-83
2022/05/18 08:17:22;;;;;;;4.45;2.95;;;18.90;93.20;;;;;;5084199;28;20223;-81
2022/05/18 08:19:49;;;;;;;4.55;2.53;;;18.90;93.40;;;;;;5082339;28;20303;-85
2022/05/18 08:22:17;;;;;;;5.05;3.20;;;19.00;93.60;;;;;;5073104;28;20880;-83
2022/05/18 08:24:44;;;;;;;3.53;2.70;;;19.00;93.60;;;;;;5070858;27;20223;-80
2022/05/18 08:27:17;;;;;;;5.65;2.80;;;19.10;93.80;;;;;;5060059;28;20256;-84
2022/05/18 08:29:44;;;;;;;4.38;2.90;;;19.30;93.90;;;;;;5062002;28;20219;-82
2022/05/18 08:32:12;;;;;;;4.68;2.90;;;19.50;94.10;;;;;;5053615;28;20246;-82
2022/05/18 08:34:39;;;;;;;3.17;2.67;;;19.70;93.60;;;;;;5064383;28;20864;-84
2022/05/18 08:37:06;;;;;;;6.97;2.75;;;20.00;93.40;;;;;;5064088;28;20715;-81
2022/05/18 08:39:32;;;;;;;5.03;3.08;;;20.30;93.20;;;;;;5062181;28;20254;-81
2022/05/18 08:42:00;;;;;;;5.70;2.80;;;20.60;92.70;;;;;;5068875;28;20333;-83
2022/05/18 08:44:32;;;;;;;3.75;2.95;;;20.80;92.70;;;;;;5067813;28;20223;-81
2022/05/18 08:47:11;;;;;;;4.22;2.90;;;21.00;92.10;;;;;;5065944;28;20292;-84
2022/05/18 08:49:45;;;;;;;4.55;3.20;;;21.20;91.80;;;;;;5058270;28;20218;-81
2022/05/18 08:52:39;;;;;;;4.47;2.97;;;21.70;92.40;;;;;;5066713;28;20223;-81
2022/05/18 08:55:28;;;;;;;5.15;2.85;;;22.10;91.90;;;;;;5063819;28;20276;-84
2022/05/18 08:57:58;;;;;;;5.40;3.22;;;22.60;91.70;;;;;;5051324;28;20271;-83
2022/05/18 09:00:29;;;;;;;5.45;3.15;;;23.20;91.20;;;;;;5067163;28;20284;-80
2022/05/18 09:03:00;;;;;;;3.80;3.10;;;23.80;90.50;;;;;;5062185;28;20228;-84
2022/05/18 09:05:33;;;;;;;5.18;3.17;;;24.30;89.30;;;;;;5068610;28;20231;-81
2022/05/18 09:08:07;;;;;;;5.15;3.50;;;24.70;88.20;;;;;;5070586;28;20251;-81
2022/05/18 09:10:39;;;;;;;4.05;3.05;;;25.20;86.80;;;;;;5070066;28;20219;-84
2022/05/18 09:13:06;;;;;;;4.60;3.33;;;25.60;86.70;;;;;;5065730;28;20231;-81
2022/05/18 09:15:40;;;;;;;3.80;3.22;;;26.10;86.50;;;;;;5067072;28;20227;-85
2022/05/18 09:18:20;;;;;;;5.78;3.90;;;26.50;83.00;;;;;;5061465;28;20229;-82
2022/05/18 09:20:50;;;;;;;9.80;4.20;;;27.00;81.10;;;;;;5069168;28;20237;-83
2022/05/18 09:23:33;;;;;;;5.72;3.47;;;27.40;79.90;;;;;;5057107;28;20739;-82
2022/05/18 09:26:12;;;;;;;4.55;3.50;;;27.50;80.00;;;;;;5061293;28;20224;-83
2022/05/18 09:28:50;;;;;;;4.85;3.35;;;27.70;79.00;;;;;;5093098;28;20667;-85
2022/05/18 09:31:29;;;;;;;5.22;3.50;;;27.90;78.70;;;;;;5088535;28;20220;-85
2022/05/18 09:34:10;;;;;;;4.97;3.67;;;28.10;78.90;;;;;;5080451;28;20689;-85
2022/05/18 09:37:05;;;;;;;5.80;3.58;;;28.30;77.90;;;;;;5062516;28;20223;-83
2022/05/18 09:39:36;;;;;;;4.95;3.45;;;28.60;76.90;;;;;;5067831;28;20269;-84
2022/05/18 09:42:09;;;;;;;5.82;3.85;;;28.90;76.00;;;;;;5069678;28;20228;-81
2022/05/18 09:44:46;;;;;;;7.18;4.07;;;29.00;74.90;;;;;;5078242;27;20755;-84
2022/05/18 09:47:19;;;;;;;4.30;3.88;;;29.10;73.20;;;;;;5065838;28;20266;-84
2022/05/18 09:49:51;;;;;;;5.40;3.60;;;29.20;73.80;;;;;;5064627;28;20236;-85
2022/05/18 09:52:20;;;;;;;3.88;3.50;;;29.20;73.30;;;;;;5066998;28;20360;-85
2022/05/18 09:54:47;;;;;;;4.68;3.22;;;29.30;73.90;;;;;;5072632;28;20285;-84
2022/05/18 09:57:17;;;;;;;3.95;3.40;;;29.40;73.50;;;;;;5061584;28;20291;-82
2022/05/18 09:59:48;;;;;;;4.63;3.22;;;29.40;73.50;;;;;;5066866;28;20841;-82
2022/05/18 10:07:52;;;;;;;5.85;4.03;;;29.80;70.00;;;;;;5065527;28;20278;-82
2022/05/18 10:10:25;;;;;;;6.78;3.92;;;29.80;69.40;;;;;;5069610;28;20253;-83
2022/05/18 10:13:02;;;;;;;4.85;3.88;;;29.70;69.10;;;;;;5065526;28;20242;-86
2022/05/18 10:15:34;;;;;;;4.95;4.45;;;29.60;69.00;;;;;;5095209;28;20222;-84
2022/05/18 10:18:15;;;;;;;6.07;4.93;;;29.50;68.50;;;;;;5088219;28;20230;-86
2022/05/18 10:20:43;;;;;;;5.80;3.83;;;29.30;68.50;;;;;;5071670;28;20283;-85
2022/05/18 10:23:31;;;;;;;5.05;4.20;;;29.20;69.20;;;;;;5065680;28;20223;-81
2022/05/18 10:25:58;;;;;;;4.40;4.00;;;29.10;69.60;;;;;;5067639;28;20323;-85
2022/05/18 10:28:27;;;;;;;6.70;3.70;;;29.10;70.50;;;;;;5072700;28;20223;-83
2022/05/18 10:30:56;;;;;;;4.80;4.38;;;29.10;70.20;;;;;;5071368;28;20303;-84
2022/05/18 10:33:32;;;;;;;4.80;4.13;;;29.10;69.70;;;;;;5067049;28;20292;-85
2022/05/18 10:36:09;;;;;;;7.55;4.70;;;29.20;69.90;;;;;;5060758;28;20236;-83
2022/05/18 10:38:37;;;;;;;5.93;3.92;;;29.30;69.80;;;;;;5073020;28;20238;-84
2022/05/18 10:41:13;;;;;;;5.22;4.72;;;29.40;71.00;;;;;;5073834;28;20246;-82
2022/05/18 10:43:43;;;;;;;7.90;4.72;;;29.50;69.20;;;;;;5060804;28;20266;-82
2022/05/18 10:46:13;;;;;;;11.07;4.60;;;29.70;68.90;;;;;;5062354;28;20236;-82
2022/05/18 10:48:50;;;;;;;6.40;5.03;;;29.80;68.10;;;;;;5066734;28;20578;-81
2022/05/18 10:51:29;;;;;;;5.25;4.75;;;29.80;67.30;;;;;;5060455;28;20243;-80
2022/05/18 10:54:08;;;;;;;7.03;4.80;;;29.80;68.30;;;;;;5064896;28;20758;-80
2022/05/18 10:56:35;;;;;;;6.25;4.65;;;29.80;69.10;;;;;;5064200;28;20235;-80
2022/05/18 10:59:19;;;;;;;5.28;4.75;;;29.80;69.30;;;;;;5062169;28;20314;-80
2022/05/18 11:01:54;;;;;;;8.32;5.25;;;29.90;69.20;;;;;;5084109;28;20222;-80
2022/05/18 11:04:27;;;;;;;4.72;4.32;;;30.00;67.80;;;;;;5086669;28;20274;-80
2022/05/18 11:06:55;;;;;;;6.40;5.30;;;30.20;68.70;;;;;;5083489;28;20218;-80
2022/05/18 11:09:28;;;;;;;5.53;5.00;;;30.40;69.10;;;;;;5074263;28;20896;-81
2022/05/18 11:12:00;;;;;;;6.57;5.30;;;30.60;68.70;;;;;;5077793;28;20268;-80
2022/05/18 11:14:40;;;;;;;6.10;5.38;;;30.70;67.10;;;;;;5069639;27;20302;-81
2022/05/18 11:17:27;;;;;;;7.30;5.63;;;30.80;66.60;;;;;;5059603;28;20219;-81
2022/05/18 11:20:03;;;;;;;5.75;5.00;;;30.80;65.40;;;;;;5058908;28;20253;-80
2022/05/18 11:22:34;;;;;;;6.70;5.38;;;30.70;66.40;;;;;;5062897;28;20249;-80
2022/05/18 11:25:16;;;;;;;5.57;4.68;;;30.70;66.50;;;;;;5058481;28;20219;-80
2022/05/18 11:27:49;;;;;;;6.50;5.78;;;30.60;67.20;;;;;;5063803;28;20289;-80
2022/05/18 11:30:22;;;;;;;5.88;5.38;;;30.60;66.20;;;;;;5053810;28;20682;-80
2022/05/18 11:33:04;;;;;;;8.77;5.63;;;30.60;66.20;;;;;;5054932;28;20227;-80
2022/05/18 11:35:44;;;;;;;8.23;5.85;;;30.50;65.60;;;;;;5057849;28;20251;-81
2022/05/18 11:38:39;;;;;;;6.90;5.10;;;30.60;66.60;;;;;;5067708;28;20234;-80
2022/05/18 11:41:20;;;;;;;6.10;5.55;;;30.60;67.00;;;;;;5060181;28;20310;-80
2022/05/18 11:43:59;;;;;;;6.50;4.90;;;30.60;65.80;;;;;;5052124;28;20306;-80
2022/05/18 11:46:38;;;;;;;6.22;5.32;;;30.70;67.10;;;;;;5059693;28;20227;-81
2022/05/18 11:49:15;;;;;;;5.82;5.30;;;30.70;66.70;;;;;;5063390;28;20215;-80
2022/05/18 11:51:56;;;;;;;6.47;5.53;;;30.70;66.10;;;;;;5060642;28;20309;-80
2022/05/18 11:54:34;;;;;;;5.80;5.15;;;30.70;65.00;;;;;;5065060;28;20223;-80
2022/05/18 11:57:11;;;;;;;6.15;5.55;;;30.60;65.80;;;;;;5065202;28;20227;-81
2022/05/18 12:00:01;;;;;;;9.18;5.68;;;30.60;65.80;;;;;;5074714;28;20281;-81
2022/05/18 12:02:49;;;;;;;7.80;5.22;;;30.60;65.90;;;;;;5078715;28;20999;-81
2022/05/18 12:05:38;;;;;;;8.82;5.30;;;30.50;65.90;;;;;;5077863;27;20276;-81
2022/05/18 12:08:27;;;;;;;5.35;4.85;;;30.40;66.30;;;;;;5061487;28;20314;-80
2022/05/18 12:11:03;;;;;;;6.55;5.05;;;30.30;67.80;;;;;;5087825;27;20325;-80
2022/05/18 12:13:38;;;;;;;6.93;5.55;;;30.30;66.60;;;;;;5074666;28;20715;-80
2022/05/18 12:16:11;;;;;;;6.20;5.20;;;30.30;66.20;;;;;;5081163;28;20244;-80
2022/05/18 12:18:42;;;;;;;6.10;4.47;;;30.20;65.70;;;;;;5081515;28;20223;-80
2022/05/18 12:21:15;;;;;;;5.32;4.82;;;30.20;65.50;;;;;;5084372;28;20275;-80
2022/05/18 12:23:48;;;;;;;5.78;5.18;;;30.10;66.50;;;;;;5085945;28;20227;-80
2022/05/18 12:26:17;;;;;;;5.85;5.15;;;30.10;66.60;;;;;;5085624;28;20835;-80
2022/05/18 12:28:45;;;;;;;4.85;4.43;;;30.20;67.10;;;;;;5092893;28;20218;-80
2022/05/18 12:31:12;;;;;;;6.07;5.47;;;30.20;67.30;;;;;;5081484;27;20716;-80
2022/05/18 12:33:46;;;;;;;5.18;4.68;;;30.40;66.30;;;;;;5082295;28;20801;-80
2022/05/18 12:36:16;;;;;;;5.75;4.93;;;30.50;66.60;;;;;;5062314;28;20219;-80
2022/05/18 12:38:56;;;;;;;5.90;4.95;;;30.50;65.40;;;;;;5068674;28;20215;-80
2022/05/18 12:41:28;;;;;;;5.57;4.78;;;30.50;66.30;;;;;;5065762;28;20235;-80
2022/05/18 12:44:04;;;;;;;5.53;4.60;;;30.50;65.70;;;;;;5057267;28;20219;-80
2022/05/18 12:46:36;;;;;;;5.25;4.75;;;30.50;64.60;;;;;;5084548;28;20226;-80
2022/05/18 12:49:08;;;;;;;8.38;4.70;;;30.50;64.20;;;;;;5087865;27;20227;-80
2022/05/18 12:51:46;;;;;;;6.32;4.40;;;30.50;65.20;;;;;;5087403;27;20275;-80
2022/05/18 12:54:23;;;;;;;6.43;4.38;;;30.50;66.00;;;;;;5081287;27;20222;-80
2022/05/18 12:57:11;;;;;;;5.20;4.40;;;30.50;65.00;;;;;;5087772;28;20479;-79
2022/05/18 12:59:55;;;;;;;5.18;4.25;;;30.50;65.10;;;;;;5088847;28;22234;-82
2022/05/18 13:02:39;;;;;;;6.93;5.18;;;30.50;65.00;;;;;;5095133;27;20232;-82
2022/05/18 13:05:11;;;;;;;4.90;4.40;;;30.50;64.30;;;;;;5094460;27;20872;-81
2022/05/18 13:07:42;;;;;;;5.47;4.50;;;30.50;65.30;;;;;;5089502;28;20483;-82
2022/05/18 13:10:16;;;;;;;4.78;4.22;;;30.50;64.20;;;;;;5088344;28;20314;-82
2022/05/18 13:12:54;;;;;;;4.20;3.80;;;30.50;65.60;;;;;;5086674;28;20222;-83
2022/05/18 13:15:53;;;;;;;7.20;3.95;;;30.60;66.00;;;;;;5077599;28;20302;-82
2022/05/18 13:18:28;;;;;;;4.95;3.80;;;30.70;63.80;;;;;;5086073;28;20226;-82
2022/05/18 13:20:59;;;;;;;5.28;3.90;;;30.70;63.70;;;;;;5085052;28;20229;-84
2022/05/18 13:23:49;;;;;;;4.68;3.70;;;30.70;64.30;;;;;;5088618;28;20671;-80
2022/05/18 13:26:35;;;;;;;4.03;3.72;;;30.70;66.10;;;;;;5084193;28;20224;-82
2022/05/18 13:29:17;;;;;;;4.30;3.50;;;30.70;63.70;;;;;;5090809;28;20229;-85